Pagrindinis puslapis
METAR-TAF:

METAR-TAF

Oro uostai :

Padangas, Indonezija

platuma: 00-47-12S, ilguma: 100-16-50E, Aukštis: 5 m

Dabartinis oras

Ataskaita buvo paskelbta 48 minutes, ne 00:30 UTC
Vėjas 1 kt iš Šiaurės Rytų
Temperatūra 24°C
Drėgmė 89%
Slėgis 1008 hPa
Matomumas 10 km arba daugiau
Mažai debesys ne aukštis 2000 ft

METAR: WIEE 260030Z 05001KT 9999 FEW020 24/22 Q1008 NOSIG

Laikas: 08:18 (01:18 UTC)

Prognozė

Ataskaita buvo paskelbta 2 valandos ir 18 minutes, ne 23:00 UTC
Prognozė galioja nuo 26 metu 00 UTC su 26 metu 24 UTC
Vėjas 6 kt iš Vakarų/Pietvakarių
Matomumas 10 km arba daugiau
Išsisklaidę debesys ne aukštis 2000 ft
Laikinai
nuo 26 metu 04 UTC su 26 metu 06 UTC
Matomumas: 4000 m
Su prošvaistėmis ne aukštis 1800 ft
lietus
Laikinai
nuo 26 metu 12 UTC su 26 metu 14 UTC
Vėjas 10 kt iš Vakarų/Pietvakarių
Matomumas: 2000 m
Su prošvaistėmis ne aukštis 1800 ft
lietus

TAF: WIEE 252300Z 2600/2624 25006KT 9999 SCT020 TEMPO 2604/2606 4000 RA BKN018 TEMPO 2612/2614 25010KT 2000 RA BKN018

Orai ataskaitas ir orų prognozės (METAR, TAF).

turimą stotys yra geltonos ir raudonos taškus žemėlapyje.

Perkelti pele per norėdami pamatyti stoties vardą.

Tada spustelėkite, norėdami matyti oro stebėjimo ir prognozės.

Norėdami pakeisti žemėlapį: spustelėkite ant žalios mygtukų su juodo kryžiaus žemyn,; žalią mygtuką su brūkšneliu, jei norite nutolinti; arba žalių rodyklių gretimoms žemėlapius.


METAR-TAF: